Flight Track Log - Related Links

Times and Time Zones

All times are in EDT time to prevent confusion due to time zone crossing. See the AWE233 flight status page for this flight to view local times or setup timezone preferences in your user account.

Time Position Orientation Groundspeed Altitude Reporting Facility
EDT Latitude Longitude Course Direction KTS MPH feet Rate Location/Type
Mon 02:50:04 AM 33.4333 -111.9833 20° North 147 169 1,900  Level Phoenix TRACON
Mon 02:51:28 AM 33.4333 -111.9167 90° East 196 226 3,400 1,209 Climbing Phoenix TRACON
Mon 02:52:00 AM 33.7794 -111.8513 15° North  Level FlightAware
Mon 02:52:13 AM 33.4467 -111.8669 72° East 225 259 4,500  Level Albuquerque Center
Mon 02:53:00 AM 33.8951 -111.8012 20° North  Level FlightAware
Mon 02:53:14 AM 33.5072 -111.8372 22° Northeast 250 288 6,400  Level Albuquerque Center
Mon 02:54:00 AM 34.0107 -111.7506 20° North  Level FlightAware
Mon 02:54:14 AM 33.5878 -111.8214 North 290 334 8,800  Level Albuquerque Center
Mon 02:55:00 AM 34.1264 -111.7002 20° North  Level FlightAware
Mon 02:55:15 AM 33.6708 -111.8053 North 303 349 11,200  Level Albuquerque Center
Mon 02:56:15 AM 33.7586 -111.7878 North 317 365 13,700 2,500 Climbing Albuquerque Center
Mon 02:57:15 AM 33.8683 -111.7653 10° North 333 383 16,200 2,281 Climbing Albuquerque Center
Mon 02:58:16 AM 33.9625 -111.7461 10° North 351 404 18,300 2,033 Climbing Albuquerque Center
Mon 02:59:16 AM 34.0722 -111.7211 11° North 374 430 20,300 1,983 Climbing Albuquerque Center
Mon 03:00:17 AM 34.1736 -111.6792 19° North 384 442 22,300 1,587 Climbing Albuquerque Center
Mon 03:01:17 AM 34.2664 -111.6450 17° North 392 451 23,500 1,339 Climbing Albuquerque Center
Mon 03:02:18 AM 34.3733 -111.6022 18° North 402 463 25,000 1,388 Climbing Albuquerque Center
Mon 03:03:18 AM 34.4836 -111.5592 18° North 410 472 26,300 1,140 Climbing Albuquerque Center
Mon 03:04:19 AM 34.5819 -111.4797 34° Northeast 427 491 27,300 1,041 Climbing Albuquerque Center
Mon 03:05:19 AM 34.6614 -111.3664 50° Northeast 437 503 28,400 900 Climbing Albuquerque Center
Mon 03:06:19 AM 34.7436 -111.2506 49° Northeast 446 513 29,100 545 Climbing Albuquerque Center
Mon 03:07:20 AM 34.8300 -111.1267 50° Northeast 470 541 29,500 545 Climbing Albuquerque Center
Mon 03:08:20 AM 34.9203 -110.9983 49° Northeast 491 565 30,200 942 Climbing Albuquerque Center
Mon 03:09:21 AM 35.0119 -110.8686 49° Northeast 501 577 31,400 1,190 Climbing Albuquerque Center
Mon 03:10:21 AM 35.1042 -110.7358 50° Northeast 497 572 32,600 1,240 Climbing Albuquerque Center
Mon 03:11:22 AM 35.1986 -110.5875 52° Northeast 494 568 33,900 992 Climbing Albuquerque Center
Mon 03:12:22 AM 35.2783 -110.4614 52° Northeast 492 566 34,600 793 Climbing Albuquerque Center
Mon 03:13:23 AM 35.3617 -110.3331 51° Northeast 499 574 35,500 942 Climbing Albuquerque Center
Mon 03:14:23 AM 35.4567 -110.1853 52° Northeast 495 570 36,500 833 Climbing Albuquerque Center
Mon 03:15:11 AM 35.5242 -110.0792 52° Northeast 495 570 37,000 275 Climbing Albuquerque Center
Mon 03:16:12 AM 35.6033 -109.9536 52° Northeast 488 562 37,000  Level Albuquerque Center
Mon 03:17:12 AM 35.6825 -109.8281 52° Northeast 485 558 37,000  Level Albuquerque Center
Mon 03:18:13 AM 35.7764 -109.6797 52° Northeast 490 564 37,000  Level Albuquerque Center
Mon 03:19:13 AM 35.8528 -109.5478 54° Northeast 493 567 37,000  Level Albuquerque Center
Mon 03:20:14 AM 35.9072 -109.3983 66° East 497 572 37,000  Level Albuquerque Center
Mon 03:21:09 AM 35.9631 -109.2539 64° Northeast 491 565 37,000  Level Denver Center
Mon 03:22:10 AM 36.0192 -109.1075 65° Northeast 492 566 37,000  Level Denver Center
Mon 03:23:10 AM 36.0750 -108.9631 64° Northeast 487 560 37,000  Level Denver Center
Mon 03:24:10 AM 36.1381 -108.7986 65° Northeast 499 574 37,000  Level Denver Center
Mon 03:25:11 AM 36.2008 -108.6278 65° Northeast 494 568 37,000  Level Denver Center
Mon 03:26:11 AM 36.2556 -108.4800 65° Northeast 490 564 37,000  Level Denver Center
Mon 03:27:12 AM 36.3106 -108.3308 65° Northeast 495 570 37,000  Level Denver Center
Mon 03:28:12 AM 36.3747 -108.1564 65° Northeast 497 572 37,000  Level Denver Center
Mon 03:29:13 AM 36.4303 -108.0072 65° Northeast 499 574 37,000  Level Denver Center
Mon 03:30:13 AM 36.4836 -107.8575 66° East 497 572 37,000  Level Denver Center
Mon 03:31:14 AM 36.5475 -107.6839 65° Northeast 494 568 37,000  Level Denver Center
Mon 03:32:14 AM 36.6006 -107.5389 65° Northeast 485 558 37,000  Level Denver Center
Mon 03:33:15 AM 36.6511 -107.3950 66° East 475 547 37,000  Level Denver Center
Mon 03:34:15 AM 36.7028 -107.2494 66° East 481 554 37,000  Level Denver Center
Mon 03:35:16 AM 36.7661 -107.0786 65° Northeast 484 557 37,000 50 Level Denver Center
Mon 03:36:16 AM 36.8183 -106.9331 66° East 482 555 37,100  Climbing Denver Center
Mon 03:37:17 AM 36.8694 -106.7881 66° East 479 551 37,000 -50 Descending Denver Center
Mon 03:38:17 AM 36.9292 -106.6194 66° East 475 547 37,000  Level Denver Center
Mon 03:39:18 AM 36.9794 -106.4725 67° East 477 549 37,000  Level Denver Center
Mon 03:40:18 AM 37.0306 -106.3264 66° East 478 550 37,000  Level Denver Center
Mon 03:41:19 AM 37.0897 -106.1536 67° East 483 556 37,000  Level Denver Center
Mon 03:42:19 AM 37.1433 -106.0069 65° Northeast 483 556 37,000  Level Denver Center
Mon 03:43:20 AM 37.1936 -105.8581 67° East 484 557 37,000  Level Denver Center
Mon 03:44:20 AM 37.2525 -105.6847 67° East 486 559 37,000  Level Denver Center
Mon 03:45:33 AM 37.3011 -105.5322 68° East 489 563 37,000  Level Denver Center
Mon 03:46:34 AM 37.3606 -105.3575 67° East 489 563 37,000  Level Denver Center
Mon 03:47:34 AM 37.4200 -105.1808 67° East 491 565 37,000  Level Denver Center
Mon 03:48:35 AM 37.4714 -105.0303 67° East 489 563 37,000  Level Denver Center
Mon 03:49:35 AM 37.5214 -104.8783 67° East 489 563 37,000  Level Denver Center
Mon 03:50:36 AM 37.5786 -104.7017 68° East 487 560 37,000  Level Denver Center
Mon 03:51:36 AM 37.6281 -104.5511 67° East 485 558 37,000  Level Denver Center
Mon 03:52:37 AM 37.6783 -104.3992 67° East 487 560 37,000  Level Denver Center
Mon 03:53:37 AM 37.7278 -104.2478 68° East 484 557 37,000  Level Denver Center
Mon 03:54:38 AM 37.7847 -104.0689 68° East 486 559 37,000  Level Denver Center
Mon 03:55:38 AM 37.8347 -103.9153 68° East 487 560 37,000  Level Denver Center
Mon 03:56:39 AM 37.8831 -103.7625 68° East 485 558 37,000 50 Level Denver Center
Mon 03:57:39 AM 37.9306 -103.6114 68° East 481 554 37,100  Climbing Denver Center
Mon 03:58:40 AM 37.9856 -103.4353 68° East 478 550 37,000 -50 Descending Denver Center
Mon 03:59:40 AM 38.0322 -103.2853 68° East 477 549 37,000  Level Denver Center
Mon 04:00:41 AM 38.0844 -103.1219 68° East 478 550 37,000  Level Denver Center
Mon 04:01:41 AM 38.1308 -102.9717 69° East 479 551 37,000  Level Denver Center
Mon 04:02:42 AM 38.1758 -102.8211 69° East 477 549 37,000  Level Denver Center
Mon 04:03:42 AM 38.2294 -102.6439 69° East 480 552 37,000  Level Denver Center
Mon 04:04:43 AM 38.2586 -102.4889 76° East 474 545 37,000  Level Denver Center
Mon 04:05:43 AM 38.2872 -102.3325 77° East 475 547 37,000  Level Denver Center
Mon 04:06:44 AM 38.3236 -102.1522 76° East 472 543 37,000  Level Denver Center
Mon 04:07:44 AM 38.3525 -101.9975 77° East 468 539 37,000  Level Denver Center
Mon 04:08:45 AM 38.3883 -101.8442 73° East 469 540 37,000  Level Denver Center
Mon 04:09:45 AM 38.4208 -101.7175 72° East 470 541 37,000  Level Denver Center
Mon 04:10:46 AM 38.4714 -101.5128 72° East 474 545 37,000  Level Denver Center
Mon 04:11:46 AM 38.5089 -101.3589 73° East 473 544 37,000  Level Denver Center
Mon 04:12:46 AM 38.5478 -101.2064 72° East 471 542 37,000  Level Denver Center
Mon 04:13:47 AM 38.5931 -101.0281 72° East 471 542 37,000  Level Denver Center
Mon 04:14:47 AM 38.6306 -100.8750 73° East 470 541 37,000  Level Denver Center
Mon 04:15:48 AM 38.6700 -100.7247 71° East 466 536 37,000  Level Denver Center
Mon 04:16:48 AM 38.7083 -100.5731 72° East 465 535 37,000  Level Denver Center
Mon 04:18:01 AM 38.7564 -100.4000 70° East 463 533 37,000  Level Denver Center
Mon 04:19:01 AM 38.8064 -100.2275 70° East 463 533 37,000  Level Denver Center
Mon 04:19:44 AM 38.8422 -100.1042 70° East 460 529 37,000  Level Kansas Center
Mon 04:20:44 AM 38.8847 -99.9564 70° East 460 529 37,000  Level Kansas Center
Mon 04:21:45 AM 38.9267 -99.8067 70° East 464 534 37,000  Level Kansas Center
Mon 04:22:45 AM 38.9764 -99.6303 70° East 468 539 37,000  Level Kansas Center
Mon 04:23:46 AM 39.0128 -99.5006 70° East 468 539 37,000  Level Kansas Center
Mon 04:24:46 AM 39.0575 -99.3425 70° East 470 541 37,000  Level Kansas Center
Mon 04:25:47 AM 39.1017 -99.1831 70° East 472 543 37,000  Level Kansas Center
Mon 04:26:47 AM 39.1464 -99.0247 70° East 471 542 37,000  Level Kansas Center
Mon 04:27:48 AM 39.1886 -98.8672 71° East 465 535 37,000  Level Kansas Center
Mon 04:28:48 AM 39.2356 -98.6956 71° East 467 537 37,000  Level Kansas Center
Mon 04:29:49 AM 39.2792 -98.5311 71° East 473 544 37,000  Level Kansas Center
Mon 04:30:49 AM 39.3222 -98.3708 71° East 474 545 37,000  Level Kansas Center
Mon 04:31:49 AM 39.3664 -98.2075 71° East 475 547 37,000  Level Kansas Center
Mon 04:32:50 AM 39.4075 -98.0542 71° East 473 544 37,000  Level Kansas Center
Mon 04:33:50 AM 39.4628 -97.8803 68° East 468 539 37,000 -50 Level Kansas Center
Mon 04:34:51 AM 39.5056 -97.7378 69° East 470 541 36,900  Descending Kansas Center
Mon 04:35:51 AM 39.5528 -97.5839 68° East 463 533 37,000 50 Climbing Kansas Center
Mon 04:36:52 AM 39.6014 -97.4267 68° East 469 540 37,000  Level Kansas Center
Mon 04:37:52 AM 39.6503 -97.2667 68° East 476 548 37,000  Level Kansas Center
Mon 04:38:53 AM 39.7083 -97.0828 68° East 482 555 37,000  Level Kansas Center
Mon 04:39:53 AM 39.7567 -96.9225 69° East 479 551 37,000  Level Kansas Center
Mon 04:40:54 AM 39.8069 -96.7522 69° East 477 549 37,000  Level Kansas Center
Mon 04:41:54 AM 39.8539 -96.5931 69° East 473 544 37,000  Level Kansas Center
Mon 04:42:54 AM 39.8950 -96.4492 70° East 473 544 37,000  Level Minneapolis Center
Mon 04:43:55 AM 39.9414 -96.2922 69° East 470 541 37,000  Level Minneapolis Center
Mon 04:44:56 AM 39.9906 -96.1289 69° East 464 534 37,000  Level Kansas Center
Mon 04:45:56 AM 40.0358 -95.9756 69° East 471 542 37,000 50 Level Kansas Center
Mon 04:46:57 AM 40.0872 -95.7978 69° East 468 539 37,100  Climbing Kansas Center
Mon 04:47:57 AM 40.1303 -95.6475 69° East 462 532 37,000 -50 Descending Kansas Center
Mon 04:48:58 AM 40.1728 -95.4986 69° East 456 525 37,000  Level Kansas Center
Mon 04:49:57 AM 40.2133 -95.3519 70° East 453 521 37,000  Level Minneapolis Center
Mon 04:50:57 AM 40.2575 -95.1975 69° East 454 522 37,000  Level Minneapolis Center
Mon 04:51:58 AM 40.3011 -95.0422 70° East 455 524 37,000  Level Minneapolis Center
Mon 04:52:58 AM 40.3453 -94.8858 70° East 458 527 37,000 50 Level Minneapolis Center
Mon 04:53:59 AM 40.3889 -94.7264 70° East 463 533 37,100  Climbing Minneapolis Center
Mon 04:54:59 AM 40.4339 -94.5681 69° East 464 534 37,000 -50 Descending Minneapolis Center
Mon 04:55:59 AM 40.4792 -94.3992 71° East 464 534 37,000  Level Minneapolis Center
Mon 04:57:00 AM 40.5225 -94.2442 70° East 459 528 37,000  Level Minneapolis Center
Mon 04:58:00 AM 40.5522 -94.0869 76° East 454 522 37,000  Level Minneapolis Center
Mon 04:59:01 AM 40.5322 -93.9189 99° East 466 536 37,000  Level Minneapolis Center
Mon 05:00:03 AM 40.5103 -93.7536 100° East 465 535 37,000  Level Minneapolis Center
Mon 05:01:03 AM 40.4781 -93.5544 102° East 468 539 37,000  Level Minneapolis Center
Mon 05:02:04 AM 40.4550 -93.3864 100° East 470 541 37,000  Level Minneapolis Center
Mon 05:03:04 AM 40.4286 -93.2206 102° East 469 540 37,000  Level Minneapolis Center
Mon 05:04:05 AM 40.4033 -93.0553 101° East 467 537 37,000  Level Minneapolis Center
Mon 05:05:05 AM 40.3794 -92.8911 101° East 465 535 37,000  Level Minneapolis Center
Mon 05:06:06 AM 40.3556 -92.7275 101° East 462 532 37,000  Level Minneapolis Center
Mon 05:07:06 AM 40.3281 -92.5622 102° East 461 531 37,000  Level Minneapolis Center
Mon 05:08:06 AM 40.3000 -92.3769 101° East 465 535 37,000 41 Level Minneapolis Center
Mon 05:09:33 AM 40.2622 -92.1433 102° East 469 540 37,100  Climbing Chicago Center
Mon 05:10:33 AM 40.2361 -91.9778 102° East 469 540 37,000 -50 Descending Chicago Center
Mon 05:11:32 AM 40.2092 -91.8122 102° East 469 540 37,000  Level Kansas Center
Mon 05:11:33 AM 40.2092 -91.8122 102° East 470 541 37,000 100 Level Chicago Center
Mon 05:12:32 AM 40.1822 -91.6506 102° East 465 535 37,100  Climbing Kansas Center
Mon 05:13:33 AM 40.1553 -91.4925 103° East 455 524 37,000 -99 Descending Kansas Center
Mon 05:14:33 AM 40.1292 -91.3364 102° East 447 514 36,900  Descending Kansas Center
Mon 05:15:33 AM 40.1033 -91.1789 102° East 447 514 37,000 50 Climbing Kansas Center
Mon 05:16:34 AM 40.0803 -91.0197 101° East 450 518 37,000 49 Level Kansas Center
Mon 05:17:35 AM 40.1275 -90.8678 68° East 450 518 37,100  Climbing Chicago Center
Mon 05:18:36 AM 40.1744 -90.7228 67° East 441 507 37,000 -50 Descending Chicago Center
Mon 05:19:36 AM 40.2256 -90.5675 67° East 445 512 37,000  Level Chicago Center
Mon 05:20:36 AM 40.2733 -90.4192 67° East 444 511 37,000  Level Chicago Center
Mon 05:21:37 AM 40.3211 -90.2717 67° East 442 509 37,000  Level Chicago Center
Mon 05:22:37 AM 40.3678 -90.1247 67° East 439 505 37,000  Level Chicago Center
Mon 05:23:37 AM 40.4144 -89.9769 67° East 442 509 37,000  Level Chicago Center
Mon 05:24:38 AM 40.4606 -89.8297 68° East 443 510 37,000  Level Chicago Center
Mon 05:25:38 AM 40.5169 -89.6547 67° East 441 507 37,000  Level Chicago Center
Mon 05:26:39 AM 40.5644 -89.5067 67° East 443 510 37,000  Level Chicago Center
Mon 05:27:39 AM 40.6108 -89.3578 68° East 445 512 37,000  Level Chicago Center
Mon 05:28:39 AM 40.6578 -89.2094 67° East 442 509 37,000  Level Chicago Center
Mon 05:29:40 AM 40.7061 -89.0592 67° East 446 513 37,000  Level Chicago Center
Mon 05:30:40 AM 40.7519 -88.9092 68° East 444 511 37,000  Level Chicago Center
Mon 05:31:41 AM 40.7958 -88.7619 68° East 440 506 37,000  Level Chicago Center
Mon 05:32:41 AM 40.8419 -88.6106 68° East 445 512 37,000  Level Chicago Center
Mon 05:33:41 AM 40.8886 -88.4589 68° East 450 518 37,000  Level Chicago Center
Mon 05:34:42 AM 40.9342 -88.3058 68° East 451 519 37,000  Level Chicago Center
Mon 05:35:42 AM 40.9797 -88.1519 69° East 454 522 37,000  Level Chicago Center
Mon 05:36:42 AM 41.0247 -87.9986 69° East 452 520 37,000  Level Chicago Center
Mon 05:37:43 AM 41.0700 -87.8461 68° East 452 520 37,000  Level Chicago Center
Mon 05:38:43 AM 41.1242 -87.6636 68° East 451 519 37,000  Level Chicago Center
Mon 05:39:44 AM 41.1692 -87.5139 68° East 445 512 37,000  Level Chicago Center
Mon 05:40:44 AM 41.2117 -87.3642 69° East 440 506 37,000  Level Chicago Center
Mon 05:41:44 AM 41.2558 -87.2131 69° East 441 507 37,000  Level Chicago Center
Mon 05:42:45 AM 41.2994 -87.0608 69° East 444 511 37,000  Level Chicago Center
Mon 05:43:45 AM 41.3431 -86.9072 69° East 447 514 37,000 50 Level Chicago Center
Mon 05:44:46 AM 41.3883 -86.7539 68° East 447 514 37,100  Climbing Chicago Center
Mon 05:45:46 AM 41.4356 -86.5914 69° East 443 510 37,000 -50 Descending Chicago Center
Mon 05:46:46 AM 41.4800 -86.4372 69° East 445 512 37,000  Level Chicago Center
Mon 05:47:47 AM 41.5231 -86.2833 69° East 445 512 37,000  Level Chicago Center
Mon 05:48:47 AM 41.5664 -86.1294 69° East 444 511 37,000  Level Chicago Center
Mon 05:49:48 AM 41.6103 -85.9761 69° East 442 509 37,000 -1,289 Level Chicago Center
Mon 05:50:48 AM 41.6542 -85.8208 69° East 445 512 34,400 -3,250 Descending Chicago Center
Mon 05:51:48 AM 41.7014 -85.6536 69° East 471 542 30,500 -3,669 Descending Chicago Center
Mon 05:52:49 AM 41.7494 -85.4808 70° East 484 557 27,000 -3,471 Descending Chicago Center
Mon 05:53:49 AM 41.7961 -85.3100 70° East 478 550 23,500 -2,900 Descending Chicago Center
Mon 05:54:49 AM 41.8319 -85.1761 70° East 475 547 21,200 -1,240 Descending Chicago Center
Mon 05:55:50 AM 41.8808 -84.9847 71° East 459 528 21,000 -1,388 Descending Chicago Center
Mon 05:56:50 AM 41.9214 -84.8269 71° East 450 518 18,400 -2,727 Descending Chicago Center
Mon 05:57:51 AM 41.9617 -84.6697 71° East 447 514 15,500 -2,033 Descending Chicago Center
Mon 05:58:51 AM 41.9931 -84.5461 71° East 426 490 14,300 -1,339 Descending Chicago Center
Mon 05:59:52 AM 42.0267 -84.4122 71° East 390 449 12,800 -1,429 Descending Chicago Center
Mon 06:00:36 AM 42.0533 -84.3167 69° East 375 432 11,800 -1,049 Descending Cleveland Center
Mon 06:01:35 AM 42.0783 -84.1950 74° East 343 395 11,000 -403 Descending Cleveland Center
Mon 06:02:35 AM 42.1067 -84.0875 70° East 306 352 11,000  Level Cleveland Center
Mon 06:03:35 AM 42.1328 -83.9825 71° East 299 344 11,000 -50 Level Cleveland Center
Mon 06:04:35 AM 42.1586 -83.8747 72° East 299 344 10,900 -667 Descending Cleveland Center
Mon 06:05:05 AM 42.1750 -83.8194 68° East 302 348 10,000 -1,574 Descending Cleveland Center
Mon 06:05:36 AM 42.1847 -83.7694 75° East 299 344 9,300 -1,467 Descending Cleveland Center
Mon 06:06:35 AM 42.2125 -83.6614 71° East 299 344 7,800 -1,625 Descending Cleveland Center
Mon 06:07:12 AM 42.2267 -83.6006 73° East 293 337 6,700 -1,327 Descending Cleveland Center
Mon 06:08:19 AM 42.2933 -83.5250 40° Northeast 262 302 5,500 -1,148 Descending Cleveland Center
Mon 06:09:07 AM 42.3381 -83.4878 32° Northeast 221 254 4,500 -874 Descending Cleveland Center
Mon 06:10:02 AM 42.3686 -83.4272 56° Northeast 214 246 4,000 -761 Descending Cleveland Center
Mon 06:11:21 AM 42.3689 -83.3319 90° East 194 223 2,800 -729 Descending Cleveland Center
Mon 06:12:22 AM 42.3258 -83.3019 153° Southeast 182 209 2,300 -495 Descending Cleveland Center
Mon 06:13:10 AM 42.2881 -83.3197 199° South 176 203 1,900 -626 Descending Cleveland Center
Mon 06:14:17 AM 42.2497 -83.3492 210° Southwest 122 140 1,100 -716 Descending Cleveland Center

Login

Don't have an account? Register now (free) for customized features, flight alerts, and more!